sensor_id;sensor_type;location;lat;lon;timestamp;temperature;humidity
70867;HTU21D;58487;53.474;49.470;2024-02-15T00:00:15;-19.37;69.84
70867;HTU21D;58487;53.474;49.470;2024-02-15T00:02:45;-19.38;69.66
70867;HTU21D;58487;53.474;49.470;2024-02-15T00:05:12;-19.40;69.81
70867;HTU21D;58487;53.474;49.470;2024-02-15T00:07:38;-19.37;69.90
70867;HTU21D;58487;53.474;49.470;2024-02-15T00:10:05;-19.37;69.74
70867;HTU21D;58487;53.474;49.470;2024-02-15T00:12:31;-19.37;69.50
70867;HTU21D;58487;53.474;49.470;2024-02-15T00:14:57;-19.40;69.47
70867;HTU21D;58487;53.474;49.470;2024-02-15T00:17:30;-19.48;69.74
70867;HTU21D;58487;53.474;49.470;2024-02-15T00:19:56;-19.50;69.36
70867;HTU21D;58487;53.474;49.470;2024-02-15T00:22:22;-19.59;69.50
70867;HTU21D;58487;53.474;49.470;2024-02-15T00:24:48;-19.59;69.52
70867;HTU21D;58487;53.474;49.470;2024-02-15T00:27:17;-19.63;69.55
70867;HTU21D;58487;53.474;49.470;2024-02-15T00:29:43;-19.59;69.49
70867;HTU21D;58487;53.474;49.470;2024-02-15T00:32:09;-19.65;69.29
70867;HTU21D;58487;53.474;49.470;2024-02-15T00:34:38;-19.61;69.44
70867;HTU21D;58487;53.474;49.470;2024-02-15T00:37:05;-19.57;69.30
70867;HTU21D;58487;53.474;49.470;2024-02-15T00:39:31;-19.58;69.25
70867;HTU21D;58487;53.474;49.470;2024-02-15T00:41:58;-19.63;68.73
70867;HTU21D;58487;53.474;49.470;2024-02-15T00:44:26;-19.52;68.80
70867;HTU21D;58487;53.474;49.470;2024-02-15T00:46:52;-19.50;68.45
70867;HTU21D;58487;53.474;49.470;2024-02-15T00:49:18;-19.48;68.38
70867;HTU21D;58487;53.474;49.470;2024-02-15T00:51:47;-19.50;68.20
70867;HTU21D;58487;53.474;49.470;2024-02-15T00:54:15;-19.53;67.82
70867;HTU21D;58487;53.474;49.470;2024-02-15T00:56:41;-19.55;68.53
70867;HTU21D;58487;53.474;49.470;2024-02-15T00:59:07;-19.59;68.40
70867;HTU21D;58487;53.474;49.470;2024-02-15T01:01:35;-19.62;68.54
70867;HTU21D;58487;53.474;49.470;2024-02-15T01:04:04;-19.73;68.35
70867;HTU21D;58487;53.474;49.470;2024-02-15T01:06:30;-19.80;68.26
70867;HTU21D;58487;53.474;49.470;2024-02-15T01:08:57;-19.84;68.46
70867;HTU21D;58487;53.474;49.470;2024-02-15T01:11:23;-19.96;68.57
70867;HTU21D;58487;53.474;49.470;2024-02-15T01:13:50;-20.20;68.74
70867;HTU21D;58487;53.474;49.470;2024-02-15T01:16:16;-20.35;69.46
70867;HTU21D;58487;53.474;49.470;2024-02-15T01:18:42;-20.51;69.53
70867;HTU21D;58487;53.474;49.470;2024-02-15T01:21:08;-20.61;69.80
70867;HTU21D;58487;53.474;49.470;2024-02-15T01:23:37;-20.63;70.44
70867;HTU21D;58487;53.474;49.470;2024-02-15T01:26:03;-20.57;70.63
70867;HTU21D;58487;53.474;49.470;2024-02-15T01:28:29;-20.59;70.38
70867;HTU21D;58487;53.474;49.470;2024-02-15T01:30:55;-20.55;70.10
70867;HTU21D;58487;53.474;49.470;2024-02-15T01:33:21;-20.53;69.81
70867;HTU21D;58487;53.474;49.470;2024-02-15T01:35:47;-20.62;69.81
70867;HTU21D;58487;53.474;49.470;2024-02-15T01:38:14;-20.63;70.15
70867;HTU21D;58487;53.474;49.470;2024-02-15T01:40:40;-20.58;70.43
70867;HTU21D;58487;53.474;49.470;2024-02-15T01:43:06;-20.58;70.61
70867;HTU21D;58487;53.474;49.470;2024-02-15T01:45:32;-20.55;70.65
70867;HTU21D;58487;53.474;49.470;2024-02-15T01:47:58;-20.54;70.50
70867;HTU21D;58487;53.474;49.470;2024-02-15T01:50:25;-20.61;70.65
70867;HTU21D;58487;53.474;49.470;2024-02-15T01:52:56;-20.56;70.75
70867;HTU21D;58487;53.474;49.470;2024-02-15T01:55:23;-20.46;70.78
70867;HTU21D;58487;53.474;49.470;2024-02-15T01:57:49;-20.43;70.62
70867;HTU21D;58487;53.474;49.470;2024-02-15T02:00:19;-20.37;70.55
70867;HTU21D;58487;53.474;49.470;2024-02-15T02:02:46;-20.32;70.34
70867;HTU21D;58487;53.474;49.470;2024-02-15T02:05:13;-20.40;70.07
70867;HTU21D;58487;53.474;49.470;2024-02-15T02:07:39;-20.44;69.54
70867;HTU21D;58487;53.474;49.470;2024-02-15T02:10:06;-20.55;69.65
70867;HTU21D;58487;53.474;49.470;2024-02-15T02:12:33;-20.56;69.78
70867;HTU21D;58487;53.474;49.470;2024-02-15T02:14:59;-20.61;69.58
70867;HTU21D;58487;53.474;49.470;2024-02-15T02:17:25;-20.59;69.65
70867;HTU21D;58487;53.474;49.470;2024-02-15T02:19:51;-20.62;69.85
70867;HTU21D;58487;53.474;49.470;2024-02-15T02:22:18;-20.59;69.91
70867;HTU21D;58487;53.474;49.470;2024-02-15T02:25:08;-20.59;70.05
70867;HTU21D;58487;53.474;49.470;2024-02-15T02:27:35;-20.57;70.21
70867;HTU21D;58487;53.474;49.470;2024-02-15T02:30:05;-20.55;70.18
70867;HTU21D;58487;53.474;49.470;2024-02-15T02:32:35;-20.58;69.89
70867;HTU21D;58487;53.474;49.470;2024-02-15T02:35:02;-20.58;70.06
70867;HTU21D;58487;53.474;49.470;2024-02-15T02:37:29;-20.57;69.93
70867;HTU21D;58487;53.474;49.470;2024-02-15T02:39:55;-20.51;69.58
70867;HTU21D;58487;53.474;49.470;2024-02-15T02:42:21;-20.57;69.49
70867;HTU21D;58487;53.474;49.470;2024-02-15T02:44:48;-20.53;69.65
70867;HTU21D;58487;53.474;49.470;2024-02-15T02:47:14;-20.53;69.55
70867;HTU21D;58487;53.474;49.470;2024-02-15T02:49:40;-20.52;69.54
70867;HTU21D;58487;53.474;49.470;2024-02-15T02:52:07;-20.50;69.52
70867;HTU21D;58487;53.474;49.470;2024-02-15T02:54:33;-20.54;69.45
70867;HTU21D;58487;53.474;49.470;2024-02-15T02:57:00;-20.57;69.39
70867;HTU21D;58487;53.474;49.470;2024-02-15T02:59:26;-20.62;69.00
70867;HTU21D;58487;53.474;49.470;2024-02-15T03:01:52;-20.58;69.00
70867;HTU21D;58487;53.474;49.470;2024-02-15T03:04:22;-20.61;69.00
70867;HTU21D;58487;53.474;49.470;2024-02-15T03:06:48;-20.64;68.82
70867;HTU21D;58487;53.474;49.470;2024-02-15T03:09:14;-20.75;69.08
70867;HTU21D;58487;53.474;49.470;2024-02-15T03:11:40;-20.76;69.09
70867;HTU21D;58487;53.474;49.470;2024-02-15T03:14:06;-20.79;68.82
70867;HTU21D;58487;53.474;49.470;2024-02-15T03:16:32;-20.78;69.00
70867;HTU21D;58487;53.474;49.470;2024-02-15T03:18:59;-20.83;68.84
70867;HTU21D;58487;53.474;49.470;2024-02-15T03:21:28;-20.82;68.90
70867;HTU21D;58487;53.474;49.470;2024-02-15T03:23:54;-20.84;68.91
70867;HTU21D;58487;53.474;49.470;2024-02-15T03:26:30;-20.85;68.71
70867;HTU21D;58487;53.474;49.470;2024-02-15T03:29:04;-20.82;68.82
70867;HTU21D;58487;53.474;49.470;2024-02-15T03:31:30;-20.82;68.42
70867;HTU21D;58487;53.474;49.470;2024-02-15T03:34:00;-20.91;68.10
70867;HTU21D;58487;53.474;49.470;2024-02-15T03:36:26;-20.99;68.26
70867;HTU21D;58487;53.474;49.470;2024-02-15T03:38:55;-21.02;68.37
70867;HTU21D;58487;53.474;49.470;2024-02-15T03:41:22;-21.14;68.36
70867;HTU21D;58487;53.474;49.470;2024-02-15T03:43:48;-21.22;68.47
70867;HTU21D;58487;53.474;49.470;2024-02-15T03:46:14;-21.26;68.64
70867;HTU21D;58487;53.474;49.470;2024-02-15T03:48:44;-21.29;68.49
70867;HTU21D;58487;53.474;49.470;2024-02-15T03:51:10;-21.30;68.65
70867;HTU21D;58487;53.474;49.470;2024-02-15T03:53:36;-21.31;68.76
70867;HTU21D;58487;53.474;49.470;2024-02-15T03:56:06;-21.31;68.97
70867;HTU21D;58487;53.474;49.470;2024-02-15T03:58:32;-21.33;69.29
70867;HTU21D;58487;53.474;49.470;2024-02-15T04:00:59;-21.37;68.78
70867;HTU21D;58487;53.474;49.470;2024-02-15T04:03:25;-21.36;69.10
70867;HTU21D;58487;53.474;49.470;2024-02-15T04:05:52;-21.36;68.72
70867;HTU21D;58487;53.474;49.470;2024-02-15T04:08:18;-21.43;68.49
70867;HTU21D;58487;53.474;49.470;2024-02-15T04:10:44;-21.47;68.98
70867;HTU21D;58487;53.474;49.470;2024-02-15T04:13:11;-21.55;69.02
70867;HTU21D;58487;53.474;49.470;2024-02-15T04:15:37;-21.56;68.91
70867;HTU21D;58487;53.474;49.470;2024-02-15T04:18:04;-21.55;69.39
70867;HTU21D;58487;53.474;49.470;2024-02-15T04:20:30;-21.52;68.83
70867;HTU21D;58487;53.474;49.470;2024-02-15T04:27:09;-21.39;68.58
70867;HTU21D;58487;53.474;49.470;2024-02-15T04:29:40;-21.35;68.49
70867;HTU21D;58487;53.474;49.470;2024-02-15T04:32:10;-21.38;68.31
70867;HTU21D;58487;53.474;49.470;2024-02-15T04:34:36;-21.43;68.36
70867;HTU21D;58487;53.474;49.470;2024-02-15T04:37:03;-21.52;68.63
70867;HTU21D;58487;53.474;49.470;2024-02-15T04:39:39;-21.49;69.03
70867;HTU21D;58487;53.474;49.470;2024-02-15T04:42:05;-21.42;68.93
70867;HTU21D;58487;53.474;49.470;2024-02-15T04:44:33;-21.32;68.91
70867;HTU21D;58487;53.474;49.470;2024-02-15T04:47:02;-21.31;68.71
70867;HTU21D;58487;53.474;49.470;2024-02-15T04:49:29;-21.30;68.81
70867;HTU21D;58487;53.474;49.470;2024-02-15T04:51:55;-21.24;68.63
70867;HTU21D;58487;53.474;49.470;2024-02-15T04:54:23;-21.14;68.00
70867;HTU21D;58487;53.474;49.470;2024-02-15T04:56:49;-21.11;67.52
70867;HTU21D;58487;53.474;49.470;2024-02-15T04:59:20;-21.11;67.84
70867;HTU21D;58487;53.474;49.470;2024-02-15T05:01:47;-21.10;67.42
70867;HTU21D;58487;53.474;49.470;2024-02-15T05:04:15;-21.02;67.35
70867;HTU21D;58487;53.474;49.470;2024-02-15T05:06:41;-20.95;67.12
70867;HTU21D;58487;53.474;49.470;2024-02-15T05:09:07;-20.88;67.00
70867;HTU21D;58487;53.474;49.470;2024-02-15T05:11:40;-20.86;66.87
70867;HTU21D;58487;53.474;49.470;2024-02-15T05:14:13;-20.84;66.86
70867;HTU21D;58487;53.474;49.470;2024-02-15T05:16:47;-20.84;67.04
70867;HTU21D;58487;53.474;49.470;2024-02-15T05:19:15;-20.79;67.07
70867;HTU21D;58487;53.474;49.470;2024-02-15T05:21:43;-20.70;66.98
70867;HTU21D;58487;53.474;49.470;2024-02-15T05:24:13;-20.57;66.43
70867;HTU21D;58487;53.474;49.470;2024-02-15T05:26:40;-20.42;66.26
70867;HTU21D;58487;53.474;49.470;2024-02-15T05:29:09;-20.33;65.90
70867;HTU21D;58487;53.474;49.470;2024-02-15T05:31:37;-20.31;66.07
70867;HTU21D;58487;53.474;49.470;2024-02-15T05:34:06;-20.44;66.42
70867;HTU21D;58487;53.474;49.470;2024-02-15T05:36:34;-20.38;66.82
70867;HTU21D;58487;53.474;49.470;2024-02-15T05:39:00;-20.35;66.53
70867;HTU21D;58487;53.474;49.470;2024-02-15T05:41:28;-20.38;66.35
70867;HTU21D;58487;53.474;49.470;2024-02-15T05:43:55;-20.36;66.23
70867;HTU21D;58487;53.474;49.470;2024-02-15T05:46:23;-20.27;65.69
70867;HTU21D;58487;53.474;49.470;2024-02-15T05:48:50;-20.06;65.82
70867;HTU21D;58487;53.474;49.470;2024-02-15T05:51:19;-19.93;65.20
70867;HTU21D;58487;53.474;49.470;2024-02-15T05:53:45;-19.76;64.93
70867;HTU21D;58487;53.474;49.470;2024-02-15T05:56:11;-19.62;64.27
70867;HTU21D;58487;53.474;49.470;2024-02-15T05:58:38;-19.50;63.60
70867;HTU21D;58487;53.474;49.470;2024-02-15T06:01:06;-19.33;63.93
70867;HTU21D;58487;53.474;49.470;2024-02-15T06:03:33;-19.17;63.61
70867;HTU21D;58487;53.474;49.470;2024-02-15T06:06:00;-19.03;63.27
70867;HTU21D;58487;53.474;49.470;2024-02-15T06:08:28;-18.86;62.89
70867;HTU21D;58487;53.474;49.470;2024-02-15T06:10:57;-18.78;62.60
70867;HTU21D;58487;53.474;49.470;2024-02-15T06:13:25;-18.71;62.45
70867;HTU21D;58487;53.474;49.470;2024-02-15T06:15:52;-18.65;62.34
70867;HTU21D;58487;53.474;49.470;2024-02-15T06:18:20;-18.63;61.88
70867;HTU21D;58487;53.474;49.470;2024-02-15T06:20:59;-18.53;61.50
70867;HTU21D;58487;53.474;49.470;2024-02-15T06:23:26;-18.44;61.39
70867;HTU21D;58487;53.474;49.470;2024-02-15T06:25:56;-18.32;61.58
70867;HTU21D;58487;53.474;49.470;2024-02-15T06:28:23;-18.18;61.17
70867;HTU21D;58487;53.474;49.470;2024-02-15T06:31:09;-18.20;61.47
70867;HTU21D;58487;53.474;49.470;2024-02-15T06:33:54;-18.24;61.47
70867;HTU21D;58487;53.474;49.470;2024-02-15T06:36:56;-18.18;61.76
70867;HTU21D;58487;53.474;49.470;2024-02-15T06:39:41;-18.13;61.74
70867;HTU21D;58487;53.474;49.470;2024-02-15T06:42:07;-18.15;61.50
70867;HTU21D;58487;53.474;49.470;2024-02-15T06:44:34;-18.03;61.57
70867;HTU21D;58487;53.474;49.470;2024-02-15T06:47:01;-17.92;61.50
70867;HTU21D;58487;53.474;49.470;2024-02-15T06:49:27;-17.96;61.79
70867;HTU21D;58487;53.474;49.470;2024-02-15T06:51:53;-17.98;62.39
70867;HTU21D;58487;53.474;49.470;2024-02-15T06:54:20;-17.74;62.35
70867;HTU21D;58487;53.474;49.470;2024-02-15T06:56:46;-17.72;61.69
70867;HTU21D;58487;53.474;49.470;2024-02-15T06:59:13;-17.70;62.03
70867;HTU21D;58487;53.474;49.470;2024-02-15T07:01:44;-17.72;62.05
70867;HTU21D;58487;53.474;49.470;2024-02-15T07:04:11;-17.61;62.30
70867;HTU21D;58487;53.474;49.470;2024-02-15T07:06:38;-17.50;62.87
70867;HTU21D;58487;53.474;49.470;2024-02-15T07:09:05;-17.47;62.70
70867;HTU21D;58487;53.474;49.470;2024-02-15T07:11:35;-17.43;62.94
70867;HTU21D;58487;53.474;49.470;2024-02-15T07:14:02;-17.41;62.61
70867;HTU21D;58487;53.474;49.470;2024-02-15T07:16:30;-17.27;62.43
70867;HTU21D;58487;53.474;49.470;2024-02-15T07:18:56;-17.09;61.83
70867;HTU21D;58487;53.474;49.470;2024-02-15T07:21:22;-16.99;62.05
70867;HTU21D;58487;53.474;49.470;2024-02-15T07:23:55;-16.96;61.41
70867;HTU21D;58487;53.474;49.470;2024-02-15T07:26:23;-16.87;61.45
70867;HTU21D;58487;53.474;49.470;2024-02-15T07:28:56;-16.80;61.02
70867;HTU21D;58487;53.474;49.470;2024-02-15T07:31:27;-16.64;60.69
70867;HTU21D;58487;53.474;49.470;2024-02-15T07:33:53;-16.29;59.79
70867;HTU21D;58487;53.474;49.470;2024-02-15T07:36:23;-16.29;59.64
70867;HTU21D;58487;53.474;49.470;2024-02-15T07:38:53;-16.29;59.12
70867;HTU21D;58487;53.474;49.470;2024-02-15T07:41:23;-16.29;60.11
70867;HTU21D;58487;53.474;49.470;2024-02-15T07:43:50;-16.30;59.87
70867;HTU21D;58487;53.474;49.470;2024-02-15T07:46:17;-16.35;59.93
70867;HTU21D;58487;53.474;49.470;2024-02-15T07:48:43;-16.03;59.34
70867;HTU21D;58487;53.474;49.470;2024-02-15T07:51:14;-15.97;58.80
70867;HTU21D;58487;53.474;49.470;2024-02-15T07:53:41;-15.82;58.70
70867;HTU21D;58487;53.474;49.470;2024-02-15T07:56:12;-15.84;58.77
70867;HTU21D;58487;53.474;49.470;2024-02-15T07:58:42;-15.82;58.99
70867;HTU21D;58487;53.474;49.470;2024-02-15T08:01:15;-15.68;58.51
70867;HTU21D;58487;53.474;49.470;2024-02-15T08:03:48;-15.80;59.19
70867;HTU21D;58487;53.474;49.470;2024-02-15T08:06:16;-15.69;59.43
70867;HTU21D;58487;53.474;49.470;2024-02-15T08:08:44;-15.61;59.09
70867;HTU21D;58487;53.474;49.470;2024-02-15T08:11:16;-15.56;58.77
70867;HTU21D;58487;53.474;49.470;2024-02-15T08:13:50;-15.30;58.41
70867;HTU21D;58487;53.474;49.470;2024-02-15T08:16:18;-15.31;58.89
70867;HTU21D;58487;53.474;49.470;2024-02-15T08:18:45;-15.06;58.10
70867;HTU21D;58487;53.474;49.470;2024-02-15T08:21:14;-14.93;57.82
70867;HTU21D;58487;53.474;49.470;2024-02-15T08:23:40;-14.98;57.77
70867;HTU21D;58487;53.474;49.470;2024-02-15T08:26:06;-14.78;58.04
70867;HTU21D;58487;53.474;49.470;2024-02-15T08:28:32;-15.04;59.05
70867;HTU21D;58487;53.474;49.470;2024-02-15T08:30:58;-14.62;57.81
70867;HTU21D;58487;53.474;49.470;2024-02-15T08:33:24;-14.60;57.87
70867;HTU21D;58487;53.474;49.470;2024-02-15T08:35:54;-14.74;58.51
70867;HTU21D;58487;53.474;49.470;2024-02-15T08:38:22;-14.52;57.60
70867;HTU21D;58487;53.474;49.470;2024-02-15T08:40:48;-14.36;57.18
70867;HTU21D;58487;53.474;49.470;2024-02-15T08:43:15;-14.27;56.13
70867;HTU21D;58487;53.474;49.470;2024-02-15T08:45:44;-14.39;57.74
70867;HTU21D;58487;53.474;49.470;2024-02-15T08:48:11;-14.01;56.55
70867;HTU21D;58487;53.474;49.470;2024-02-15T08:50:38;-13.70;56.64
70867;HTU21D;58487;53.474;49.470;2024-02-15T08:53:04;-13.58;53.40
70867;HTU21D;58487;53.474;49.470;2024-02-15T08:55:32;-13.80;53.65
70867;HTU21D;58487;53.474;49.470;2024-02-15T08:58:01;-13.85;54.57
70867;HTU21D;58487;53.474;49.470;2024-02-15T09:00:28;-13.69;52.42
70867;HTU21D;58487;53.474;49.470;2024-02-15T09:02:54;-13.36;52.36
70867;HTU21D;58487;53.474;49.470;2024-02-15T09:05:22;-13.27;52.46
70867;HTU21D;58487;53.474;49.470;2024-02-15T09:07:49;-13.17;49.33
70867;HTU21D;58487;53.474;49.470;2024-02-15T09:10:16;-13.32;48.41
70867;HTU21D;58487;53.474;49.470;2024-02-15T09:12:48;-13.21;47.77
70867;HTU21D;58487;53.474;49.470;2024-02-15T09:15:14;-12.91;46.91
70867;HTU21D;58487;53.474;49.470;2024-02-15T09:17:41;-13.06;46.67
70867;HTU21D;58487;53.474;49.470;2024-02-15T09:20:09;-13.14;46.51
70867;HTU21D;58487;53.474;49.470;2024-02-15T09:22:52;-12.88;46.82
70867;HTU21D;58487;53.474;49.470;2024-02-15T09:25:21;-12.86;46.97
70867;HTU21D;58487;53.474;49.470;2024-02-15T09:27:50;-12.72;46.60
70867;HTU21D;58487;53.474;49.470;2024-02-15T09:30:17;-12.80;45.96
70867;HTU21D;58487;53.474;49.470;2024-02-15T09:32:44;-12.86;46.28
70867;HTU21D;58487;53.474;49.470;2024-02-15T09:35:11;-12.51;45.80
70867;HTU21D;58487;53.474;49.470;2024-02-15T09:37:47;-12.34;45.39
70867;HTU21D;58487;53.474;49.470;2024-02-15T09:40:18;-12.13;44.18
70867;HTU21D;58487;53.474;49.470;2024-02-15T09:42:45;-11.68;43.06
70867;HTU21D;58487;53.474;49.470;2024-02-15T09:45:12;-11.18;41.38
70867;HTU21D;58487;53.474;49.470;2024-02-15T09:47:41;-11.54;40.90
70867;HTU21D;58487;53.474;49.470;2024-02-15T09:50:12;-11.37;40.56
70867;HTU21D;58487;53.474;49.470;2024-02-15T09:52:47;-11.23;41.00
70867;HTU21D;58487;53.474;49.470;2024-02-15T09:55:14;-11.23;41.88
70867;HTU21D;58487;53.474;49.470;2024-02-15T09:57:46;-10.66;41.55
70867;HTU21D;58487;53.474;49.470;2024-02-15T10:00:13;-10.48;40.15
70867;HTU21D;58487;53.474;49.470;2024-02-15T10:02:44;-10.72;40.26
70867;HTU21D;58487;53.474;49.470;2024-02-15T10:05:11;-10.53;38.52
70867;HTU21D;58487;53.474;49.470;2024-02-15T10:07:41;-10.52;38.59
70867;HTU21D;58487;53.474;49.470;2024-02-15T10:10:21;-9.92;37.89
70867;HTU21D;58487;53.474;49.470;2024-02-15T10:12:51;-9.75;38.75
70867;HTU21D;58487;53.474;49.470;2024-02-15T10:15:37;-9.93;38.62
70867;HTU21D;58487;53.474;49.470;2024-02-15T10:18:08;-9.86;38.11
70867;HTU21D;58487;53.474;49.470;2024-02-15T10:20:39;-9.59;37.60
70867;HTU21D;58487;53.474;49.470;2024-02-15T10:23:16;-9.41;37.95
70867;HTU21D;58487;53.474;49.470;2024-02-15T10:25:45;-8.67;36.76
70867;HTU21D;58487;53.474;49.470;2024-02-15T10:28:12;-8.90;38.30
70867;HTU21D;58487;53.474;49.470;2024-02-15T10:30:41;-9.13;38.68
70867;HTU21D;58487;53.474;49.470;2024-02-15T10:33:18;-9.31;37.53
70867;HTU21D;58487;53.474;49.470;2024-02-15T10:35:46;-9.13;36.95
70867;HTU21D;58487;53.474;49.470;2024-02-15T10:38:12;-8.99;38.83
70867;HTU21D;58487;53.474;49.470;2024-02-15T10:40:42;-9.10;37.07
70867;HTU21D;58487;53.474;49.470;2024-02-15T10:43:10;-8.79;36.99
70867;HTU21D;58487;53.474;49.470;2024-02-15T10:45:39;-9.08;37.58
70867;HTU21D;58487;53.474;49.470;2024-02-15T10:48:08;-9.20;38.02
70867;HTU21D;58487;53.474;49.470;2024-02-15T10:50:34;-9.48;37.37
70867;HTU21D;58487;53.474;49.470;2024-02-15T10:53:06;-9.42;37.68
70867;HTU21D;58487;53.474;49.470;2024-02-15T10:55:53;-8.85;36.52
70867;HTU21D;58487;53.474;49.470;2024-02-15T10:58:25;-8.74;37.27
70867;HTU21D;58487;53.474;49.470;2024-02-15T11:00:53;-8.74;35.89
70867;HTU21D;58487;53.474;49.470;2024-02-15T11:03:25;-8.67;35.70
70867;HTU21D;58487;53.474;49.470;2024-02-15T11:05:52;-8.73;36.30
70867;HTU21D;58487;53.474;49.470;2024-02-15T11:08:21;-8.56;36.21
70867;HTU21D;58487;53.474;49.470;2024-02-15T11:10:48;-8.33;35.47
70867;HTU21D;58487;53.474;49.470;2024-02-15T11:13:17;-7.94;34.01
70867;HTU21D;58487;53.474;49.470;2024-02-15T11:15:47;-8.23;35.45
70867;HTU21D;58487;53.474;49.470;2024-02-15T11:18:55;-8.52;36.18
70867;HTU21D;58487;53.474;49.470;2024-02-15T11:21:55;-8.38;34.75
70867;HTU21D;58487;53.474;49.470;2024-02-15T11:24:26;-8.28;35.30
70867;HTU21D;58487;53.474;49.470;2024-02-15T11:27:01;-8.04;35.34
70867;HTU21D;58487;53.474;49.470;2024-02-15T11:35:12;-8.19;34.26
70867;HTU21D;58487;53.474;49.470;2024-02-15T11:40:23;-8.25;33.99
70867;HTU21D;58487;53.474;49.470;2024-02-15T11:42:51;-7.20;32.94
70867;HTU21D;58487;53.474;49.470;2024-02-15T11:45:19;-7.60;33.12
70867;HTU21D;58487;53.474;49.470;2024-02-15T11:47:49;-7.91;33.10
70867;HTU21D;58487;53.474;49.470;2024-02-15T11:50:20;-7.60;32.82
70867;HTU21D;58487;53.474;49.470;2024-02-15T11:52:48;-7.57;31.99
70867;HTU21D;58487;53.474;49.470;2024-02-15T11:55:18;-7.67;33.10
70867;HTU21D;58487;53.474;49.470;2024-02-15T11:57:57;-7.79;32.32
70867;HTU21D;58487;53.474;49.470;2024-02-15T12:00:39;-7.33;31.20
70867;HTU21D;58487;53.474;49.470;2024-02-15T12:03:24;-7.46;32.02
70867;HTU21D;58487;53.474;49.470;2024-02-15T12:06:09;-7.91;32.36
70867;HTU21D;58487;53.474;49.470;2024-02-15T12:08:54;-7.82;32.67
70867;HTU21D;58487;53.474;49.470;2024-02-15T12:11:40;-7.53;32.85
70867;HTU21D;58487;53.474;49.470;2024-02-15T12:14:24;-7.64;33.50
70867;HTU21D;58487;53.474;49.470;2024-02-15T12:17:12;-6.82;31.22
70867;HTU21D;58487;53.474;49.470;2024-02-15T12:19:59;-7.09;31.67
70867;HTU21D;58487;53.474;49.470;2024-02-15T12:22:36;-7.02;31.18
70867;HTU21D;58487;53.474;49.470;2024-02-15T12:25:07;-7.38;31.96
70867;HTU21D;58487;53.474;49.470;2024-02-15T12:27:41;-7.31;31.59
70867;HTU21D;58487;53.474;49.470;2024-02-15T12:30:16;-7.63;32.33
70867;HTU21D;58487;53.474;49.470;2024-02-15T12:32:52;-7.81;32.06
70867;HTU21D;58487;53.474;49.470;2024-02-15T12:35:20;-7.62;32.96
70867;HTU21D;58487;53.474;49.470;2024-02-15T12:37:46;-7.32;32.16
70867;HTU21D;58487;53.474;49.470;2024-02-15T12:40:16;-7.37;32.15
70867;HTU21D;58487;53.474;49.470;2024-02-15T12:42:46;-7.44;32.38
70867;HTU21D;58487;53.474;49.470;2024-02-15T12:45:24;-7.30;31.91
70867;HTU21D;58487;53.474;49.470;2024-02-15T12:47:51;-7.66;32.64
70867;HTU21D;58487;53.474;49.470;2024-02-15T12:50:22;-7.47;32.33
70867;HTU21D;58487;53.474;49.470;2024-02-15T12:52:50;-7.81;33.15
70867;HTU21D;58487;53.474;49.470;2024-02-15T12:55:21;-8.03;32.87
70867;HTU21D;58487;53.474;49.470;2024-02-15T12:57:49;-7.86;31.97
70867;HTU21D;58487;53.474;49.470;2024-02-15T13:02:50;-8.72;34.92
70867;HTU21D;58487;53.474;49.470;2024-02-15T13:05:18;-9.12;35.02
70867;HTU21D;58487;53.474;49.470;2024-02-15T13:07:51;-9.03;35.58
70867;HTU21D;58487;53.474;49.470;2024-02-15T13:10:17;-9.20;36.20
70867;HTU21D;58487;53.474;49.470;2024-02-15T13:12:45;-9.34;37.22
70867;HTU21D;58487;53.474;49.470;2024-02-15T13:15:13;-9.67;37.32
70867;HTU21D;58487;53.474;49.470;2024-02-15T13:17:44;-9.60;37.02
70867;HTU21D;58487;53.474;49.470;2024-02-15T13:20:30;-9.75;37.26
70867;HTU21D;58487;53.474;49.470;2024-02-15T13:23:05;-10.07;37.82
70867;HTU21D;58487;53.474;49.470;2024-02-15T13:25:38;-10.59;39.04
70867;HTU21D;58487;53.474;49.470;2024-02-15T13:28:06;-10.95;40.29
70867;HTU21D;58487;53.474;49.470;2024-02-15T13:30:32;-11.26;41.33
70867;HTU21D;58487;53.474;49.470;2024-02-15T13:32:58;-11.65;42.52
70867;HTU21D;58487;53.474;49.470;2024-02-15T13:35:25;-11.84;43.03
70867;HTU21D;58487;53.474;49.470;2024-02-15T13:37:52;-12.24;43.90
70867;HTU21D;58487;53.474;49.470;2024-02-15T13:40:20;-12.52;45.00
70867;HTU21D;58487;53.474;49.470;2024-02-15T13:42:50;-12.81;45.90
70867;HTU21D;58487;53.474;49.470;2024-02-15T13:45:23;-13.08;46.53
70867;HTU21D;58487;53.474;49.470;2024-02-15T13:47:50;-13.26;46.86
70867;HTU21D;58487;53.474;49.470;2024-02-15T13:50:17;-13.30;47.04
70867;HTU21D;58487;53.474;49.470;2024-02-15T13:52:46;-13.49;47.50
70867;HTU21D;58487;53.474;49.470;2024-02-15T13:55:15;-13.63;48.00
70867;HTU21D;58487;53.474;49.470;2024-02-15T13:57:45;-13.68;48.02
70867;HTU21D;58487;53.474;49.470;2024-02-15T14:00:15;-13.76;48.34
70867;HTU21D;58487;53.474;49.470;2024-02-15T14:02:55;-13.90;47.99
70867;HTU21D;58487;53.474;49.470;2024-02-15T14:05:26;-13.98;48.47
70867;HTU21D;58487;53.474;49.470;2024-02-15T14:08:03;-14.16;48.50
70867;HTU21D;58487;53.474;49.470;2024-02-15T14:10:35;-14.36;48.56
70867;HTU21D;58487;53.474;49.470;2024-02-15T14:13:03;-14.36;48.97
70867;HTU21D;58487;53.474;49.470;2024-02-15T14:15:32;-14.46;49.04
70867;HTU21D;58487;53.474;49.470;2024-02-15T14:18:05;-14.45;49.45
70867;HTU21D;58487;53.474;49.470;2024-02-15T14:20:32;-14.52;49.50
70867;HTU21D;58487;53.474;49.470;2024-02-15T14:22:58;-14.55;49.79
70867;HTU21D;58487;53.474;49.470;2024-02-15T14:25:30;-14.56;49.59
70867;HTU21D;58487;53.474;49.470;2024-02-15T14:27:59;-14.47;49.46
70867;HTU21D;58487;53.474;49.470;2024-02-15T14:30:26;-14.55;49.78
70867;HTU21D;58487;53.474;49.470;2024-02-15T14:33:10;-14.51;49.59
70867;HTU21D;58487;53.474;49.470;2024-02-15T14:35:41;-14.47;50.16
70867;HTU21D;58487;53.474;49.470;2024-02-15T14:38:09;-14.57;50.24
70867;HTU21D;58487;53.474;49.470;2024-02-15T14:40:41;-14.71;50.34
70867;HTU21D;58487;53.474;49.470;2024-02-15T14:43:09;-14.78;50.53
70867;HTU21D;58487;53.474;49.470;2024-02-15T14:45:39;-14.84;51.05
70867;HTU21D;58487;53.474;49.470;2024-02-15T14:48:08;-14.89;51.32
70867;HTU21D;58487;53.474;49.470;2024-02-15T14:50:42;-14.93;51.26
70867;HTU21D;58487;53.474;49.470;2024-02-15T14:53:08;-14.99;51.56
70867;HTU21D;58487;53.474;49.470;2024-02-15T14:55:35;-15.01;51.88
70867;HTU21D;58487;53.474;49.470;2024-02-15T14:58:07;-15.05;51.68
70867;HTU21D;58487;53.474;49.470;2024-02-15T15:00:34;-15.17;51.67
70867;HTU21D;58487;53.474;49.470;2024-02-15T15:03:00;-15.19;51.70
70867;HTU21D;58487;53.474;49.470;2024-02-15T15:05:28;-15.18;51.38
70867;HTU21D;58487;53.474;49.470;2024-02-15T15:08:12;-15.37;52.09
70867;HTU21D;58487;53.474;49.470;2024-02-15T15:10:57;-15.32;52.08
70867;HTU21D;58487;53.474;49.470;2024-02-15T15:13:41;-15.28;52.27
70867;HTU21D;58487;53.474;49.470;2024-02-15T15:16:07;-15.32;52.12
70867;HTU21D;58487;53.474;49.470;2024-02-15T15:18:35;-15.36;52.22